FRA weather

Frankfurt am Main International Airport
Frankfurt-am-Main, Hesse, Germany

Public forecast

Using degrees Celsius for public forecast. Weather courtesy of forecast.io.

METAR (pilot weather report)

Retrieved 2017/05/23 20:20 UTC (0 seconds ago):

EDDF 232020Z 32008G21KT 240V010 CAVOK 20/10 Q1020 NOSIG

TAF (pilot weather forecast)

Retrieved 2017/05/23 18:28 UTC (2 hours ago):

TAF EDDF 231700Z 2318/2424 31008KT CAVOK TEMPO 2318/2321 32010G20KT BECMG 2420/2422 VRB03KT